M/V Ian Earle — WDD9798 — position and weather

sailwx.info

Track history (hours):
 
Tides and Currents Weather Stations Pressure Air Temp Water Temp Dewpoint Dewpoint Depression Visibility Wind Speed Wind Dir Waves Ship Positions

M/V Ian Earle

Owner: The Tug Ian Earle, L.L.C., Channelview, TX. More information available from US FCC via Universal Licensing System and Coast Guard Vessel Documentation Center.

Last reported at 2017-Nov-18 18:25 UTC. Time now 2017-Nov-19 05:09 UTC.
Position N 29°46' W 095°05'.

Length 23 m.

Type: Other ship. MMSI: 367316480.

Date/timePositionNaut miles runAvg speedWind from/ knotsBaromVisibWave heightAir tempDewpointWater temp
2017-Nov-18 18:25N 29°46' W 095°05'2 1.1
2017-Nov-18 16:36N 29°44' W 095°03'1 6.3
2017-Nov-18 16:30N 29°44' W 095°03'3 5.5
2017-Nov-18 16:00N 29°42' W 095°01'3 6.0
2017-Nov-18 15:30N 29°40' W 094°58'3 5.9
2017-Nov-18 14:59N 29°37' W 094°58'3 6.3
2017-Nov-18 14:30N 29°37' W 095°01'0 0.3
2017-Nov-18 14:00N 29°37' W 095°01'0 0.0
2017-Nov-18 13:30N 29°37' W 095°01'0 0.0
2017-Nov-18 13:00N 29°37' W 095°01'0 0.0
2017-Nov-18 12:30N 29°37' W 095°01'0 0.0
2017-Nov-18 12:00N 29°37' W 095°01'0 0.0
2017-Nov-18 11:30N 29°37' W 095°01'0 0.0
2017-Nov-18 11:00N 29°37' W 095°01'0 0.0
2017-Nov-18 10:30N 29°37' W 095°01'0 0.0
2017-Nov-18 10:00N 29°37' W 095°01'0 0.0
2017-Nov-18 09:30N 29°37' W 095°01'0 0.0
2017-Nov-18 09:00N 29°37' W 095°01'0 0.0
2017-Nov-18 08:30N 29°37' W 095°01'0 0.0
2017-Nov-18 08:00N 29°37' W 095°01'0 0.0
2017-Nov-18 07:30N 29°37' W 095°01'0 0.0
2017-Nov-18 07:00N 29°37' W 095°01'0 0.0
2017-Nov-18 06:30N 29°37' W 095°01'0 0.0
2017-Nov-18 06:00N 29°37' W 095°01'0 0.0
2017-Nov-18 05:30N 29°37' W 095°01'0 0.0
2017-Nov-18 05:00N 29°37' W 095°01'0 0.0
2017-Nov-18 04:30N 29°37' W 095°01'0 0.0
2017-Nov-18 04:00N 29°37' W 095°01'0 0.0
2017-Nov-18 03:30N 29°37' W 095°01'0 0.0
2017-Nov-18 03:00N 29°37' W 095°01'0 0.3
2017-Nov-18 02:30N 29°37' W 095°02'0 0.0
2017-Nov-18 02:00N 29°37' W 095°01'0 0.0
2017-Nov-18 01:30N 29°37' W 095°01'2 4.7
2017-Nov-18 01:00N 29°37' W 094°59'3 5.5
2017-Nov-18 00:30N 29°40' W 094°58'3 6.7
2017-Nov-18 00:00N 29°42' W 095°01'3 6.2
2017-Nov-17 23:30N 29°44' W 095°03'2 4.5
2017-Nov-17 22:58N 29°47' W 095°05'1 2.2
2017-Nov-17 22:23N 29°47' W 095°04'0 0.2
2017-Nov-17 21:30N 29°47' W 095°04'3 0.1
2017-Nov-17 03:24N 29°45' W 095°06'0 0.0
2017-Nov-16 04:44N 29°45' W 095°06'2 0.5
2017-Nov-16 00:38N 29°44' W 095°03'1 6.2
2017-Nov-16 00:31N 29°44' W 095°03'3 5.9
2017-Nov-15 23:58N 29°42' W 094°60'4 8.0
2017-Nov-15 23:30N 29°39' W 094°58'2 4.9
2017-Nov-15 23:01N 29°37' W 094°60'1 2.8
2017-Nov-15 22:30N 29°37' W 095°01'0 0.1
2017-Nov-15 22:01N 29°37' W 095°02'0 0.0
2017-Nov-15 21:31N 29°37' W 095°01'0 0.0
2017-Nov-15 21:00N 29°37' W 095°01'0 0.0
2017-Nov-15 20:31N 29°37' W 095°01'0 0.0
2017-Nov-15 20:01N 29°37' W 095°01'0 0.0
2017-Nov-15 19:30N 29°37' W 095°01'0 0.0
2017-Nov-15 19:01N 29°37' W 095°01'0 0.0
2017-Nov-15 18:30N 29°37' W 095°02'0 0.0
2017-Nov-15 18:01N 29°37' W 095°01'0 0.0
2017-Nov-15 17:31N 29°37' W 095°01'0 0.1
2017-Nov-15 17:01N 29°37' W 095°01'0 0.1
2017-Nov-15 16:31N 29°37' W 095°01'0 0.0
2017-Nov-15 16:01N 29°37' W 095°01'0 0.0
2017-Nov-15 15:31N 29°37' W 095°01'0 0.0
2017-Nov-15 15:01N 29°37' W 095°01'0 0.0
2017-Nov-15 14:31N 29°37' W 095°01'0 0.0
2017-Nov-15 14:00N 29°37' W 095°01'0 0.0
2017-Nov-15 13:31N 29°37' W 095°01'0 0.0
2017-Nov-15 13:01N 29°37' W 095°01'0 0.0
2017-Nov-15 12:31N 29°37' W 095°01'0 0.0
2017-Nov-15 12:00N 29°37' W 095°01'0 0.0
2017-Nov-15 11:30N 29°37' W 095°01'0 0.0
2017-Nov-15 11:00N 29°37' W 095°01'0 0.0
2017-Nov-15 10:31N 29°37' W 095°01'0 0.0
2017-Nov-15 10:00N 29°37' W 095°01'0 0.0
2017-Nov-15 09:31N 29°37' W 095°01'0 0.0
2017-Nov-15 09:00N 29°37' W 095°01'0 0.3
2017-Nov-15 08:31N 29°37' W 095°01'0 0.3
2017-Nov-15 08:01N 29°37' W 095°01'3 5.8
2017-Nov-15 07:31N 29°37' W 094°58'2 4.8
2017-Nov-15 07:01N 29°39' W 094°58'3 6.9
2017-Nov-15 06:30N 29°42' W 095°01'3 6.3
2017-Nov-15 06:01N 29°44' W 095°03'3 5.2
2017-Nov-15 05:23N 29°47' W 095°04'3 1.7
2017-Nov-15 03:52N 29°45' W 095°04'3 7.1
2017-Nov-15 03:25N 29°43' W 095°01'3 7.0
2017-Nov-15 03:01N 29°41' W 094°59'4 7.7
2017-Nov-15 02:30N 29°37' W 094°58'3 6.3
2017-Nov-15 02:00N 29°37' W 095°01'0 0.3
2017-Nov-15 01:31N 29°37' W 095°01'0 0.0
2017-Nov-15 01:01N 29°37' W 095°01'0 0.0
2017-Nov-15 00:31N 29°37' W 095°02'0 0.0
2017-Nov-15 00:01N 29°37' W 095°01'0 0.0
2017-Nov-14 23:30N 29°37' W 095°01'0 0.0
2017-Nov-14 23:00N 29°37' W 095°02'0 0.0
2017-Nov-14 22:30N 29°37' W 095°01'0 0.0
2017-Nov-14 22:00N 29°37' W 095°01'0 0.0
2017-Nov-14 21:31N 29°37' W 095°01'0 0.0
2017-Nov-14 21:01N 29°37' W 095°01'0 0.0
2017-Nov-14 20:30N 29°37' W 095°01'0 0.0
2017-Nov-14 20:01N 29°37' W 095°01'0 0.0
2017-Nov-14 19:31N 29°37' W 095°01'0 0.0
2017-Nov-14 19:01N 29°37' W 095°01'0 0.0
2017-Nov-14 18:30N 29°37' W 095°01'0 0.0
2017-Nov-14 18:01N 29°37' W 095°01'0 0.0
2017-Nov-14 17:31N 29°37' W 095°01'0 0.0
2017-Nov-14 17:00N 29°37' W 095°01'0 0.0
2017-Nov-14 16:31N 29°37' W 095°01'0 0.3
2017-Nov-14 16:01N 29°37' W 095°02'0 0.1
2017-Nov-14 15:31N 29°37' W 095°01'0 0.9
2017-Nov-14 15:01N 29°37' W 095°01'3 5.9
2017-Nov-14 14:31N 29°38' W 094°58'4 8.4
2017-Nov-14 14:00N 29°42' W 094°60'4 7.5
2017-Nov-14 13:31N 29°44' W 095°03'3 6.1
2017-Nov-14 12:56N 29°47' W 095°04'3 0.4
2017-Nov-14 04:54N 29°46' W 095°07'0 0.5
2017-Nov-14 04:28N 29°46' W 095°07'1 1.0
2017-Nov-14 03:46N 29°46' W 095°06'1 2.5
2017-Nov-14 03:31N 29°46' W 095°05'2 4.0
2017-Nov-14 02:57N 29°47' W 095°04'3 2.1
2017-Nov-14 01:34N 29°45' W 095°06'0 0.0
2017-Nov-14 01:22N 29°45' W 095°06'0 0.0
2017-Nov-14 00:57N 29°45' W 095°06'1 0.0
2017-Nov-12 22:39N 29°46' W 095°06'1 6.5
2017-Nov-12 22:30N 29°46' W 095°05'1 1.2
2017-Nov-12 21:47N 29°45' W 095°04'3 7.4
2017-Nov-12 21:25N 29°44' W 095°02'3 7.2
2017-Nov-12 21:00N 29°42' W 094°59'4 7.1
2017-Nov-12 20:31N 29°38' W 094°58'2 4.9
2017-Nov-12 20:01N 29°37' W 095°00'1 2.5
2017-Nov-12 19:30N 29°37' W 095°01'0 0.0
2017-Nov-12 19:01N 29°37' W 095°02'0 0.0
2017-Nov-12 18:31N 29°37' W 095°01'0 0.0
2017-Nov-12 18:01N 29°37' W 095°02'0 0.0
2017-Nov-12 17:30N 29°37' W 095°02'0 0.0
2017-Nov-12 17:01N 29°37' W 095°01'0 0.0
2017-Nov-12 16:31N 29°37' W 095°02'0 0.0
2017-Nov-12 16:01N 29°37' W 095°02'0 0.0
2017-Nov-12 15:31N 29°37' W 095°02'0 0.0
2017-Nov-12 15:01N 29°37' W 095°02'0 0.0
2017-Nov-12 14:31N 29°37' W 095°02'0 0.0
2017-Nov-12 14:01N 29°37' W 095°01'0 0.0
2017-Nov-12 13:31N 29°37' W 095°01'0 0.0
2017-Nov-12 13:01N 29°37' W 095°01'0 0.0
2017-Nov-12 12:31N 29°37' W 095°02'0 0.0
2017-Nov-12 12:01N 29°37' W 095°02'0 0.0
2017-Nov-12 11:31N 29°37' W 095°02'0 0.0
2017-Nov-12 11:01N 29°37' W 095°01'0 0.0
2017-Nov-12 10:31N 29°37' W 095°02'0 0.0
2017-Nov-12 10:00N 29°37' W 095°01'0 0.0
2017-Nov-12 09:31N 29°37' W 095°01'0 0.0
2017-Nov-12 09:01N 29°37' W 095°02'0 0.0
2017-Nov-12 08:31N 29°37' W 095°02'0 0.0
2017-Nov-12 08:01N 29°37' W 095°02'2 4.8
2017-Nov-12 07:31N 29°37' W 094°59'3 6.1
2017-Nov-12 07:01N 29°40' W 094°59'4 7.5
2017-Nov-12 06:31N 29°43' W 095°01'3 6.0
2017-Nov-12 05:58N 29°45' W 095°04'2 4.7
2017-Nov-12 05:27N 29°47' W 095°04'0 0.0
2017-Nov-11 18:43N 29°47' W 095°04'2 1.9
2017-Nov-11 17:46N 29°46' W 095°04'2 6.1
2017-Nov-11 17:29N 29°44' W 095°03'2 3.4
2017-Nov-11 17:01N 29°44' W 095°01'0 0.4
2017-Nov-11 16:07N 29°44' W 095°01'0 0.1
2017-Nov-11 15:58N 29°44' W 095°01'0 0.0
2017-Nov-09 23:45N 29°44' W 095°01'0 0.1
2017-Nov-09 22:21N 29°44' W 095°01'3 6.2
2017-Nov-09 21:54N 29°45' W 095°04'2 3.6
2017-Nov-09 21:17N 29°47' W 095°04'0 0.1
2017-Nov-09 21:00N 29°47' W 095°04'0 0.0
2017-Nov-09 20:29N 29°47' W 095°04'2 0.1
2017-Nov-08 19:57N 29°46' W 095°05'  
Track history (hours):
 
Tides and Currents Weather Stations Pressure Air Temp Water Temp Dewpoint Dewpoint Depression Visibility Wind Speed Wind Dir Waves Ship Positions

M/V Ian Earle

Owner: The Tug Ian Earle, L.L.C., Channelview, TX. More information available from US FCC via Universal Licensing System and Coast Guard Vessel Documentation Center.

Last reported at 2017-Nov-18 18:25 UTC. Time now 2017-Nov-19 05:09 UTC.
Position N 29°46' W 095°05'.

Length 23 m.

Type: Other ship. MMSI: 367316480.

Date/timePositionNaut miles runAvg speedWind from/ knotsBaromVisibWave heightAir tempDewpointWater temp
2017-Nov-18 18:25N 29°46' W 095°05'2 1.1
2017-Nov-18 16:36N 29°44' W 095°03'1 6.3
2017-Nov-18 16:30N 29°44' W 095°03'3 5.5
2017-Nov-18 16:00N 29°42' W 095°01'3 6.0
2017-Nov-18 15:30N 29°40' W 094°58'3 5.9
2017-Nov-18 14:59N 29°37' W 094°58'3 6.3
2017-Nov-18 14:30N 29°37' W 095°01'0 0.3
2017-Nov-18 14:00N 29°37' W 095°01'0 0.0
2017-Nov-18 13:30N 29°37' W 095°01'0 0.0
2017-Nov-18 13:00N 29°37' W 095°01'0 0.0
2017-Nov-18 12:30N 29°37' W 095°01'0 0.0
2017-Nov-18 12:00N 29°37' W 095°01'0 0.0
2017-Nov-18 11:30N 29°37' W 095°01'0 0.0
2017-Nov-18 11:00N 29°37' W 095°01'0 0.0
2017-Nov-18 10:30N 29°37' W 095°01'0 0.0
2017-Nov-18 10:00N 29°37' W 095°01'0 0.0
2017-Nov-18 09:30N 29°37' W 095°01'0 0.0
2017-Nov-18 09:00N 29°37' W 095°01'0 0.0
2017-Nov-18 08:30N 29°37' W 095°01'0 0.0
2017-Nov-18 08:00N 29°37' W 095°01'0 0.0
2017-Nov-18 07:30N 29°37' W 095°01'0 0.0
2017-Nov-18 07:00N 29°37' W 095°01'0 0.0
2017-Nov-18 06:30N 29°37' W 095°01'0 0.0
2017-Nov-18 06:00N 29°37' W 095°01'0 0.0
2017-Nov-18 05:30N 29°37' W 095°01'0 0.0
2017-Nov-18 05:00N 29°37' W 095°01'0 0.0
2017-Nov-18 04:30N 29°37' W 095°01'0 0.0
2017-Nov-18 04:00N 29°37' W 095°01'0 0.0
2017-Nov-18 03:30N 29°37' W 095°01'0 0.0
2017-Nov-18 03:00N 29°37' W 095°01'0 0.3
2017-Nov-18 02:30N 29°37' W 095°02'0 0.0
2017-Nov-18 02:00N 29°37' W 095°01'0 0.0
2017-Nov-18 01:30N 29°37' W 095°01'2 4.7
2017-Nov-18 01:00N 29°37' W 094°59'3 5.5
2017-Nov-18 00:30N 29°40' W 094°58'3 6.7
2017-Nov-18 00:00N 29°42' W 095°01'3 6.2
2017-Nov-17 23:30N 29°44' W 095°03'2 4.5
2017-Nov-17 22:58N 29°47' W 095°05'1 2.2
2017-Nov-17 22:23N 29°47' W 095°04'0 0.2
2017-Nov-17 21:30N 29°47' W 095°04'3 0.1
2017-Nov-17 03:24N 29°45' W 095°06'0 0.0
2017-Nov-16 04:44N 29°45' W 095°06'2 0.5
2017-Nov-16 00:38N 29°44' W 095°03'1 6.2
2017-Nov-16 00:31N 29°44' W 095°03'3 5.9
2017-Nov-15 23:58N 29°42' W 094°60'4 8.0
2017-Nov-15 23:30N 29°39' W 094°58'2 4.9
2017-Nov-15 23:01N 29°37' W 094°60'1 2.8
2017-Nov-15 22:30N 29°37' W 095°01'0 0.1
2017-Nov-15 22:01N 29°37' W 095°02'0 0.0
2017-Nov-15 21:31N 29°37' W 095°01'0 0.0
2017-Nov-15 21:00N 29°37' W 095°01'0 0.0
2017-Nov-15 20:31N 29°37' W 095°01'0 0.0
2017-Nov-15 20:01N 29°37' W 095°01'0 0.0
2017-Nov-15 19:30N 29°37' W 095°01'0 0.0
2017-Nov-15 19:01N 29°37' W 095°01'0 0.0
2017-Nov-15 18:30N 29°37' W 095°02'0 0.0
2017-Nov-15 18:01N 29°37' W 095°01'0 0.0
2017-Nov-15 17:31N 29°37' W 095°01'0 0.1
2017-Nov-15 17:01N 29°37' W 095°01'0 0.1
2017-Nov-15 16:31N 29°37' W 095°01'0 0.0
2017-Nov-15 16:01N 29°37' W 095°01'0 0.0
2017-Nov-15 15:31N 29°37' W 095°01'0 0.0
2017-Nov-15 15:01N 29°37' W 095°01'0 0.0
2017-Nov-15 14:31N 29°37' W 095°01'0 0.0
2017-Nov-15 14:00N 29°37' W 095°01'0 0.0
2017-Nov-15 13:31N 29°37' W 095°01'0 0.0
2017-Nov-15 13:01N 29°37' W 095°01'0 0.0
2017-Nov-15 12:31N 29°37' W 095°01'0 0.0
2017-Nov-15 12:00N 29°37' W 095°01'0 0.0
2017-Nov-15 11:30N 29°37' W 095°01'0 0.0
2017-Nov-15 11:00N 29°37' W 095°01'0 0.0
2017-Nov-15 10:31N 29°37' W 095°01'0 0.0
2017-Nov-15 10:00N 29°37' W 095°01'0 0.0
2017-Nov-15 09:31N 29°37' W 095°01'0 0.0
2017-Nov-15 09:00N 29°37' W 095°01'0 0.3
2017-Nov-15 08:31N 29°37' W 095°01'0 0.3
2017-Nov-15 08:01N 29°37' W 095°01'3 5.8
2017-Nov-15 07:31N 29°37' W 094°58'2 4.8
2017-Nov-15 07:01N 29°39' W 094°58'3 6.9
2017-Nov-15 06:30N 29°42' W 095°01'3 6.3
2017-Nov-15 06:01N 29°44' W 095°03'3 5.2
2017-Nov-15 05:23N 29°47' W 095°04'3 1.7
2017-Nov-15 03:52N 29°45' W 095°04'3 7.1
2017-Nov-15 03:25N 29°43' W 095°01'3 7.0
2017-Nov-15 03:01N 29°41' W 094°59'4 7.7
2017-Nov-15 02:30N 29°37' W 094°58'3 6.3
2017-Nov-15 02:00N 29°37' W 095°01'0 0.3
2017-Nov-15 01:31N 29°37' W 095°01'0 0.0
2017-Nov-15 01:01N 29°37' W 095°01'0 0.0
2017-Nov-15 00:31N 29°37' W 095°02'0 0.0
2017-Nov-15 00:01N 29°37' W 095°01'0 0.0
2017-Nov-14 23:30N 29°37' W 095°01'0 0.0
2017-Nov-14 23:00N 29°37' W 095°02'0 0.0
2017-Nov-14 22:30N 29°37' W 095°01'0 0.0
2017-Nov-14 22:00N 29°37' W 095°01'0 0.0
2017-Nov-14 21:31N 29°37' W 095°01'0 0.0
2017-Nov-14 21:01N 29°37' W 095°01'0 0.0
2017-Nov-14 20:30N 29°37' W 095°01'0 0.0
2017-Nov-14 20:01N 29°37' W 095°01'0 0.0
2017-Nov-14 19:31N 29°37' W 095°01'0 0.0
2017-Nov-14 19:01N 29°37' W 095°01'0 0.0
2017-Nov-14 18:30N 29°37' W 095°01'0 0.0
2017-Nov-14 18:01N 29°37' W 095°01'0 0.0
2017-Nov-14 17:31N 29°37' W 095°01'0 0.0
2017-Nov-14 17:00N 29°37' W 095°01'0 0.0
2017-Nov-14 16:31N 29°37' W 095°01'0 0.3
2017-Nov-14 16:01N 29°37' W 095°02'0 0.1
2017-Nov-14 15:31N 29°37' W 095°01'0 0.9
2017-Nov-14 15:01N 29°37' W 095°01'3 5.9
2017-Nov-14 14:31N 29°38' W 094°58'4 8.4
2017-Nov-14 14:00N 29°42' W 094°60'4 7.5
2017-Nov-14 13:31N 29°44' W 095°03'3 6.1
2017-Nov-14 12:56N 29°47' W 095°04'3 0.4
2017-Nov-14 04:54N 29°46' W 095°07'0 0.5
2017-Nov-14 04:28N 29°46' W 095°07'1 1.0
2017-Nov-14 03:46N 29°46' W 095°06'1 2.5
2017-Nov-14 03:31N 29°46' W 095°05'2 4.0
2017-Nov-14 02:57N 29°47' W 095°04'3 2.1
2017-Nov-14 01:34N 29°45' W 095°06'0 0.0
2017-Nov-14 01:22N 29°45' W 095°06'0 0.0
2017-Nov-14 00:57N 29°45' W 095°06'1 0.0
2017-Nov-12 22:39N 29°46' W 095°06'1 6.5
2017-Nov-12 22:30N 29°46' W 095°05'1 1.2
2017-Nov-12 21:47N 29°45' W 095°04'3 7.4
2017-Nov-12 21:25N 29°44' W 095°02'3 7.2
2017-Nov-12 21:00N 29°42' W 094°59'4 7.1
2017-Nov-12 20:31N 29°38' W 094°58'2 4.9
2017-Nov-12 20:01N 29°37' W 095°00'1 2.5
2017-Nov-12 19:30N 29°37' W 095°01'0 0.0
2017-Nov-12 19:01N 29°37' W 095°02'0 0.0
2017-Nov-12 18:31N 29°37' W 095°01'0 0.0
2017-Nov-12 18:01N 29°37' W 095°02'0 0.0
2017-Nov-12 17:30N 29°37' W 095°02'0 0.0
2017-Nov-12 17:01N 29°37' W 095°01'0 0.0
2017-Nov-12 16:31N 29°37' W 095°02'0 0.0
2017-Nov-12 16:01N 29°37' W 095°02'0 0.0
2017-Nov-12 15:31N 29°37' W 095°02'0 0.0
2017-Nov-12 15:01N 29°37' W 095°02'0 0.0
2017-Nov-12 14:31N 29°37' W 095°02'0 0.0
2017-Nov-12 14:01N 29°37' W 095°01'0 0.0
2017-Nov-12 13:31N 29°37' W 095°01'0 0.0
2017-Nov-12 13:01N 29°37' W 095°01'0 0.0
2017-Nov-12 12:31N 29°37' W 095°02'0 0.0
2017-Nov-12 12:01N 29°37' W 095°02'0 0.0
2017-Nov-12 11:31N 29°37' W 095°02'0 0.0
2017-Nov-12 11:01N 29°37' W 095°01'0 0.0
2017-Nov-12 10:31N 29°37' W 095°02'0 0.0
2017-Nov-12 10:00N 29°37' W 095°01'0 0.0
2017-Nov-12 09:31N 29°37' W 095°01'0 0.0
2017-Nov-12 09:01N 29°37' W 095°02'0 0.0
2017-Nov-12 08:31N 29°37' W 095°02'0 0.0
2017-Nov-12 08:01N 29°37' W 095°02'2 4.8
2017-Nov-12 07:31N 29°37' W 094°59'3 6.1
2017-Nov-12 07:01N 29°40' W 094°59'4 7.5
2017-Nov-12 06:31N 29°43' W 095°01'3 6.0
2017-Nov-12 05:58N 29°45' W 095°04'2 4.7
2017-Nov-12 05:27N 29°47' W 095°04'0 0.0
2017-Nov-11 18:43N 29°47' W 095°04'2 1.9
2017-Nov-11 17:46N 29°46' W 095°04'2 6.1
2017-Nov-11 17:29N 29°44' W 095°03'2 3.4
2017-Nov-11 17:01N 29°44' W 095°01'0 0.4
2017-Nov-11 16:07N 29°44' W 095°01'0 0.1
2017-Nov-11 15:58N 29°44' W 095°01'0 0.0
2017-Nov-09 23:45N 29°44' W 095°01'0 0.1
2017-Nov-09 22:21N 29°44' W 095°01'3 6.2
2017-Nov-09 21:54N 29°45' W 095°04'2 3.6
2017-Nov-09 21:17N 29°47' W 095°04'0 0.1
2017-Nov-09 21:00N 29°47' W 095°04'0 0.0
2017-Nov-09 20:29N 29°47' W 095°04'2 0.1
2017-Nov-08 19:57N 29°46' W 095°05'  

Dump ship's entire track history